createdAt,value
2023-04-17T00:00:24.832Z,0.00
2023-04-17T00:01:24.820Z,0.00
2023-04-17T00:02:24.896Z,0.00
2023-04-17T00:03:24.933Z,0.00
2023-04-17T00:04:24.871Z,0.00
2023-04-17T00:05:24.773Z,0.00
2023-04-17T00:06:24.799Z,0.00
2023-04-17T00:07:24.760Z,0.00
2023-04-17T00:08:24.762Z,0.00
2023-04-17T00:09:24.729Z,0.00
2023-04-17T00:10:24.722Z,0.00
2023-04-17T00:11:24.715Z,0.00
2023-04-17T00:12:24.708Z,0.00
2023-04-17T00:13:24.721Z,0.00
2023-04-17T00:14:24.667Z,0.00
2023-04-17T00:15:24.658Z,0.00
2023-04-17T00:16:24.767Z,0.00
2023-04-17T00:17:24.668Z,0.00
2023-04-17T00:18:24.645Z,0.00
2023-04-17T00:19:24.607Z,0.00
2023-04-17T00:20:24.619Z,0.00
2023-04-17T00:21:24.591Z,0.00
2023-04-17T00:22:24.610Z,0.00
2023-04-17T00:23:24.600Z,0.00
2023-04-17T00:24:24.549Z,0.00
2023-04-17T00:25:24.588Z,0.00
2023-04-17T00:26:24.530Z,0.00
2023-04-17T00:27:24.555Z,0.00
2023-04-17T00:28:24.531Z,0.00
2023-04-17T00:29:24.497Z,0.00
2023-04-17T00:30:24.485Z,0.00
2023-04-17T00:31:24.494Z,0.00
2023-04-17T00:32:24.524Z,0.00
2023-04-17T00:33:24.486Z,0.00
2023-04-17T00:34:24.488Z,0.00
2023-04-17T00:35:24.450Z,0.00
2023-04-17T00:36:24.434Z,0.00
2023-04-17T00:37:24.434Z,0.00
2023-04-17T00:38:24.422Z,0.00
2023-04-17T00:39:24.414Z,0.00
2023-04-17T00:40:24.426Z,0.00
2023-04-17T00:41:24.374Z,0.00
2023-04-17T00:42:24.385Z,0.00
2023-04-17T00:43:24.356Z,0.00
2023-04-17T00:44:24.358Z,0.00
2023-04-17T00:45:24.371Z,0.00
2023-04-17T00:46:24.394Z,0.00
2023-04-17T00:47:24.339Z,0.00
2023-04-17T00:48:24.325Z,0.00
2023-04-17T00:49:24.317Z,0.00
2023-04-17T00:50:24.269Z,0.00
2023-04-17T00:51:24.315Z,0.00
2023-04-17T00:52:24.275Z,0.00
2023-04-17T00:53:24.273Z,0.00
2023-04-17T00:54:24.243Z,0.00
2023-04-17T00:55:24.249Z,0.00
2023-04-17T00:56:24.207Z,0.00
2023-04-17T00:57:24.212Z,0.00
2023-04-17T00:58:24.214Z,0.00
2023-04-17T00:59:24.189Z,0.00
2023-04-17T01:00:24.177Z,0.00
2023-04-17T01:01:24.193Z,0.00
2023-04-17T01:02:24.287Z,0.00
2023-04-17T01:03:24.246Z,0.00
2023-04-17T01:04:24.265Z,0.00
2023-04-17T01:05:24.123Z,0.00
2023-04-17T01:06:24.114Z,0.00
2023-04-17T01:07:24.122Z,0.00
2023-04-17T01:08:24.096Z,0.00
2023-04-17T01:09:24.078Z,0.00
2023-04-17T01:10:24.066Z,0.00
2023-04-17T01:11:24.038Z,0.00
2023-04-17T01:12:24.030Z,0.00
2023-04-17T01:13:24.056Z,0.00
2023-04-17T01:14:24.000Z,0.00
2023-04-17T01:15:23.999Z,0.00
2023-04-17T01:16:24.042Z,0.00
2023-04-17T01:17:24.025Z,0.00
2023-04-17T01:18:24.001Z,0.00
2023-04-17T01:19:23.970Z,0.00
2023-04-17T01:20:23.943Z,0.00
2023-04-17T01:21:23.961Z,0.00
2023-04-17T01:22:23.939Z,0.00
2023-04-17T01:23:23.922Z,0.00
2023-04-17T01:24:23.918Z,0.00
2023-04-17T01:25:23.908Z,0.00
2023-04-17T01:26:23.887Z,0.00
2023-04-17T01:27:23.932Z,0.00
2023-04-17T01:28:23.888Z,0.00
2023-04-17T01:29:23.845Z,0.00
2023-04-17T01:30:23.838Z,0.00
2023-04-17T01:31:24.029Z,0.00
2023-04-17T01:32:23.847Z,0.00
2023-04-17T01:33:23.835Z,0.00
2023-04-17T01:34:23.780Z,0.00
2023-04-17T01:35:23.821Z,0.00
2023-04-17T01:36:23.825Z,0.00
2023-04-17T01:37:23.816Z,0.00
2023-04-17T01:38:23.752Z,0.00
2023-04-17T01:39:23.745Z,0.00
2023-04-17T01:40:23.731Z,0.00
2023-04-17T01:41:23.722Z,0.00
2023-04-17T01:42:23.719Z,0.00
2023-04-17T01:43:23.718Z,0.00
2023-04-17T01:44:23.696Z,0.00
2023-04-17T01:45:23.687Z,0.00
2023-04-17T01:46:23.842Z,0.00
2023-04-17T01:47:23.686Z,0.00
2023-04-17T01:48:24.724Z,0.00
2023-04-17T01:49:23.649Z,0.00
2023-04-17T01:50:23.684Z,0.00
2023-04-17T01:51:23.616Z,0.00
2023-04-17T01:52:23.677Z,0.00
2023-04-17T01:53:23.593Z,0.00
2023-04-17T01:54:23.620Z,0.00
2023-04-17T01:55:23.582Z,0.00
2023-04-17T01:56:23.548Z,0.00
2023-04-17T01:57:23.539Z,0.00
2023-04-17T01:58:23.538Z,0.00
2023-04-17T01:59:23.527Z,0.00
2023-04-17T02:00:23.522Z,0.00
2023-04-17T02:01:23.580Z,0.00
2023-04-17T02:02:23.566Z,0.00
2023-04-17T02:03:23.553Z,0.00
2023-04-17T02:04:23.681Z,0.00
2023-04-17T02:05:23.477Z,0.00
2023-04-17T02:06:23.469Z,0.00
2023-04-17T02:07:23.487Z,0.00
2023-04-17T02:08:23.444Z,0.00
2023-04-17T02:09:23.409Z,0.00
2023-04-17T02:10:23.405Z,0.00
2023-04-17T02:11:23.392Z,0.00
2023-04-17T02:12:23.359Z,0.00
2023-04-17T02:13:23.412Z,0.00
2023-04-17T02:14:23.392Z,0.00
2023-04-17T02:15:23.337Z,0.00
2023-04-17T02:16:23.375Z,0.00
2023-04-17T02:17:23.386Z,0.00
2023-04-17T02:18:23.348Z,0.00
2023-04-17T02:19:23.305Z,0.00
2023-04-17T02:20:23.303Z,0.00
2023-04-17T02:21:23.286Z,0.00
2023-04-17T02:22:23.304Z,0.00
2023-04-17T02:23:23.296Z,0.00
2023-04-17T02:24:23.275Z,0.00
2023-04-17T02:25:23.228Z,0.00
2023-04-17T02:26:23.231Z,0.00
2023-04-17T02:27:23.240Z,0.00
2023-04-17T02:28:23.215Z,0.00
2023-04-17T02:29:23.259Z,0.00
2023-04-17T02:30:23.202Z,0.00
2023-04-17T02:31:23.196Z,0.00
2023-04-17T02:32:23.185Z,0.00
2023-04-17T02:33:23.194Z,0.00
2023-04-17T02:34:23.143Z,0.00
2023-04-17T02:35:23.127Z,0.00
2023-04-17T02:36:23.120Z,0.00
2023-04-17T02:37:23.103Z,0.00
2023-04-17T02:38:24.084Z,0.00
2023-04-17T02:39:23.133Z,0.00
2023-04-17T02:40:23.118Z,0.00
2023-04-17T02:41:23.073Z,0.00
2023-04-17T02:42:23.065Z,0.00
2023-04-17T02:43:23.047Z,0.00
2023-04-17T02:44:23.060Z,0.00
2023-04-17T02:45:23.030Z,0.00
2023-04-17T02:46:23.046Z,0.00
2023-04-17T02:47:23.093Z,0.00
2023-04-17T02:48:22.976Z,0.00
2023-04-17T02:49:23.020Z,0.00
2023-04-17T02:50:22.993Z,0.00
2023-04-17T02:51:22.950Z,0.00
2023-04-17T02:52:22.931Z,0.00
2023-04-17T02:53:22.946Z,0.00
2023-04-17T02:54:22.982Z,0.00
2023-04-17T02:55:22.906Z,0.00
2023-04-17T02:56:22.884Z,0.00
2023-04-17T02:57:22.898Z,0.00
2023-04-17T02:58:22.899Z,0.00
2023-04-17T02:59:22.900Z,0.00
2023-04-17T03:00:22.869Z,0.00
2023-04-17T03:01:22.880Z,0.00
2023-04-17T03:02:22.972Z,0.00
2023-04-17T03:03:22.896Z,0.00
2023-04-17T03:04:22.852Z,0.00
2023-04-17T03:05:22.797Z,0.00
2023-04-17T03:06:22.800Z,0.00
2023-04-17T03:07:22.765Z,0.00
2023-04-17T03:08:22.757Z,0.00
2023-04-17T03:09:22.784Z,0.00
2023-04-17T03:10:22.756Z,0.00
2023-04-17T03:11:22.748Z,0.00
2023-04-17T03:12:22.715Z,0.00
2023-04-17T03:13:22.711Z,0.00
2023-04-17T03:14:22.721Z,0.00
2023-04-17T03:15:22.729Z,0.00
2023-04-17T03:16:22.718Z,0.00
2023-04-17T03:17:22.700Z,0.00
2023-04-17T03:18:22.681Z,0.00
2023-04-17T03:19:22.672Z,0.00
2023-04-17T03:20:22.658Z,0.00
2023-04-17T03:21:22.636Z,0.00
2023-04-17T03:22:22.619Z,0.00
2023-04-17T03:23:22.607Z,0.00
2023-04-17T03:24:22.656Z,0.00
2023-04-17T03:25:22.613Z,0.00
2023-04-17T03:26:22.560Z,0.00
2023-04-17T03:27:22.593Z,0.00
2023-04-17T03:28:22.580Z,0.00
2023-04-17T03:29:22.579Z,0.00
2023-04-17T03:30:22.555Z,0.00
2023-04-17T03:31:24.430Z,0.00
2023-04-17T03:32:22.563Z,0.00
2023-04-17T03:33:23.200Z,0.00
2023-04-17T03:34:22.546Z,0.00
2023-04-17T03:35:22.474Z,0.00
2023-04-17T03:36:22.457Z,0.00
2023-04-17T03:37:22.457Z,0.00
2023-04-17T03:38:22.440Z,0.00
2023-04-17T03:39:22.458Z,0.00
2023-04-17T03:40:22.431Z,0.00
2023-04-17T03:41:22.402Z,0.00
2023-04-17T03:42:22.402Z,0.00
2023-04-17T03:43:22.445Z,0.00
2023-04-17T03:44:22.394Z,0.00
2023-04-17T03:45:22.367Z,0.00
2023-04-17T03:46:22.548Z,0.00
2023-04-17T03:47:22.428Z,0.00
2023-04-17T03:48:22.328Z,0.00
2023-04-17T03:49:22.364Z,0.00
2023-04-17T03:50:22.312Z,0.00
2023-04-17T03:51:22.291Z,4.00
2023-04-17T03:52:22.280Z,4.00
2023-04-17T03:53:22.277Z,0.00
2023-04-17T03:54:22.299Z,4.00
2023-04-17T03:55:22.272Z,4.00
2023-04-17T03:56:22.252Z,4.00
2023-04-17T03:57:22.242Z,4.00
2023-04-17T03:58:22.227Z,4.00
2023-04-17T03:59:22.229Z,8.00
2023-04-17T04:00:22.245Z,8.00
2023-04-17T04:01:22.191Z,4.00
2023-04-17T04:02:22.262Z,8.00
2023-04-17T04:03:22.359Z,12.00
2023-04-17T04:04:22.333Z,12.00
2023-04-17T04:05:22.249Z,12.00
2023-04-17T04:06:22.131Z,16.00
2023-04-17T04:07:22.104Z,16.00
2023-04-17T04:08:22.094Z,16.00
2023-04-17T04:09:22.135Z,20.00
2023-04-17T04:10:22.113Z,24.00
2023-04-17T04:11:22.059Z,24.00
2023-04-17T04:12:22.063Z,32.00
2023-04-17T04:13:22.032Z,32.00
2023-04-17T04:14:22.058Z,32.00
2023-04-17T04:15:22.097Z,40.00
2023-04-17T04:16:22.053Z,44.00
2023-04-17T04:17:22.001Z,48.00
2023-04-17T04:18:22.032Z,48.00
2023-04-17T04:19:21.994Z,56.00
2023-04-17T04:20:21.960Z,60.00
2023-04-17T04:21:21.990Z,64.00
2023-04-17T04:22:21.964Z,72.00
2023-04-17T04:23:21.951Z,76.00
2023-04-17T04:24:21.967Z,80.00
2023-04-17T04:25:21.918Z,88.00
2023-04-17T04:26:21.930Z,92.00
2023-04-17T04:27:21.910Z,96.00
2023-04-17T04:28:21.890Z,100.00
2023-04-17T04:29:21.912Z,104.00
2023-04-17T04:30:21.849Z,116.00
2023-04-17T04:31:22.890Z,120.00
2023-04-17T04:32:21.916Z,128.00
2023-04-17T04:33:21.860Z,132.00
2023-04-17T04:34:21.823Z,144.00
2023-04-17T04:35:21.822Z,148.00
2023-04-17T04:36:21.814Z,160.00
2023-04-17T04:37:21.799Z,168.00
2023-04-17T04:38:21.793Z,172.00
2023-04-17T04:39:21.813Z,180.00
2023-04-17T04:40:21.772Z,192.00
2023-04-17T04:41:21.739Z,196.00
2023-04-17T04:42:22.102Z,204.00
2023-04-17T04:43:22.584Z,212.00
2023-04-17T04:44:21.721Z,220.00
2023-04-17T04:45:21.730Z,232.00
2023-04-17T04:46:21.734Z,240.00
2023-04-17T04:47:21.704Z,252.00
2023-04-17T04:48:21.677Z,264.00
2023-04-17T04:49:21.704Z,272.00
2023-04-17T04:50:21.665Z,284.00
2023-04-17T04:51:21.620Z,296.00
2023-04-17T04:52:21.611Z,304.00
2023-04-17T04:53:21.615Z,316.00
2023-04-17T04:54:21.638Z,328.00
2023-04-17T04:55:21.582Z,336.00
2023-04-17T04:56:21.563Z,348.00
2023-04-17T04:57:21.590Z,364.00
2023-04-17T04:58:21.588Z,376.00
2023-04-17T04:59:21.592Z,388.00
2023-04-17T05:00:21.515Z,400.00
2023-04-17T05:01:21.661Z,412.00
2023-04-17T05:02:21.630Z,428.00
2023-04-17T05:03:21.630Z,440.00
2023-04-17T05:04:21.584Z,456.00
2023-04-17T05:05:21.506Z,472.00
2023-04-17T05:06:21.479Z,488.00
2023-04-17T05:07:21.511Z,508.00
2023-04-17T05:08:21.468Z,524.00
2023-04-17T05:09:21.446Z,540.00
2023-04-17T05:10:21.430Z,560.00
2023-04-17T05:11:21.435Z,584.00
2023-04-17T05:12:21.445Z,608.00
2023-04-17T05:13:21.427Z,632.00
2023-04-17T05:14:21.409Z,660.00
2023-04-17T05:15:21.356Z,688.00
2023-04-17T05:16:21.374Z,720.00
2023-04-17T05:17:21.435Z,748.00
2023-04-17T05:18:21.342Z,776.00
2023-04-17T05:19:21.351Z,804.00
2023-04-17T05:20:21.321Z,836.00
2023-04-17T05:21:29.800Z,864.00
2023-04-17T05:22:21.280Z,888.00
2023-04-17T05:23:21.265Z,920.00
2023-04-17T05:24:21.395Z,948.00
2023-04-17T05:25:21.244Z,968.00
2023-04-17T05:26:21.240Z,996.00
2023-04-17T05:27:21.221Z,1016.00
2023-04-17T05:28:21.210Z,1040.00
2023-04-17T05:29:21.215Z,1068.00
2023-04-17T05:30:21.193Z,1096.00
2023-04-17T05:31:21.217Z,1124.00
2023-04-17T05:32:21.245Z,1152.00
2023-04-17T05:33:21.171Z,1180.00
2023-04-17T05:34:21.165Z,1208.00
2023-04-17T05:35:21.133Z,1252.00
2023-04-17T05:36:21.118Z,1284.00
2023-04-17T05:37:21.122Z,1312.00
2023-04-17T05:38:21.108Z,1336.00
2023-04-17T05:39:21.106Z,1364.00
2023-04-17T05:40:21.086Z,1392.00
2023-04-17T05:41:21.071Z,1420.00
2023-04-17T05:42:21.052Z,1444.00
2023-04-17T05:43:21.060Z,1464.00
2023-04-17T05:44:21.054Z,1488.00
2023-04-17T05:45:22.234Z,1508.00
2023-04-17T05:46:21.112Z,1528.00
2023-04-17T05:47:21.024Z,1552.00
2023-04-17T05:48:20.990Z,1576.00
2023-04-17T05:49:21.008Z,1604.00
2023-04-17T05:50:21.013Z,1632.00
2023-04-17T05:51:20.965Z,1652.00
2023-04-17T05:52:20.945Z,1676.00
2023-04-17T05:53:20.934Z,1708.00
2023-04-17T05:54:20.949Z,1728.00
2023-04-17T05:55:20.920Z,1752.00
2023-04-17T05:56:20.908Z,1776.00
2023-04-17T05:57:20.901Z,1800.00
2023-04-17T05:58:24.053Z,1828.00
2023-04-17T05:59:20.887Z,1852.00
2023-04-17T06:00:20.865Z,1872.00
2023-04-17T06:01:20.862Z,1900.00
2023-04-17T06:02:20.947Z,1932.00
2023-04-17T06:03:21.166Z,1956.00
2023-04-17T06:04:21.130Z,1988.00
2023-04-17T06:05:20.871Z,2020.00
2023-04-17T06:06:20.811Z,2044.00
2023-04-17T06:07:20.780Z,2068.00
2023-04-17T06:08:20.781Z,2092.00
2023-04-17T06:09:20.781Z,2108.00
2023-04-17T06:10:20.757Z,2124.00
2023-04-17T06:11:20.760Z,2144.00
2023-04-17T06:12:20.743Z,2160.00
2023-04-17T06:13:20.747Z,2180.00
2023-04-17T06:14:20.711Z,2188.00
2023-04-17T06:15:20.715Z,2208.00
2023-04-17T06:16:20.731Z,2224.00
2023-04-17T06:17:20.710Z,2244.00
2023-04-17T06:18:20.671Z,2268.00
2023-04-17T06:19:20.668Z,2292.00
2023-04-17T06:20:20.662Z,2316.00
2023-04-17T06:21:20.636Z,2340.00
2023-04-17T06:22:20.620Z,2364.00
2023-04-17T06:23:20.631Z,2392.00
2023-04-17T06:24:20.602Z,2416.00
2023-04-17T06:25:20.610Z,2452.00
2023-04-17T06:26:20.578Z,2480.00
2023-04-17T06:27:20.562Z,2516.00
2023-04-17T06:28:20.564Z,2548.00
2023-04-17T06:29:20.567Z,2584.00
2023-04-17T06:30:20.550Z,2620.00
2023-04-17T06:31:20.577Z,2660.00
2023-04-17T06:32:20.583Z,2704.00
2023-04-17T06:33:20.511Z,2748.00
2023-04-17T06:34:20.492Z,2792.00
2023-04-17T06:35:20.604Z,2844.00
2023-04-17T06:36:20.468Z,2904.00
2023-04-17T06:37:20.492Z,2960.00
2023-04-17T06:38:20.454Z,3024.00
2023-04-17T06:39:20.446Z,3088.00
2023-04-17T06:40:20.457Z,3144.00
2023-04-17T06:41:20.421Z,3196.00
2023-04-17T06:42:20.423Z,3240.00
2023-04-17T06:43:20.399Z,3284.00
2023-04-17T06:44:20.400Z,3320.00
2023-04-17T06:45:20.392Z,3356.00
2023-04-17T06:46:20.389Z,3400.00
2023-04-17T06:47:20.389Z,3460.00
2023-04-17T06:48:20.351Z,3548.00
2023-04-17T06:49:20.341Z,3512.00
2023-04-17T06:50:20.347Z,3756.00
2023-04-17T06:51:20.318Z,3592.00
2023-04-17T06:52:20.316Z,3808.00
2023-04-17T06:53:20.291Z,3660.00
2023-04-17T06:54:20.292Z,3612.00
2023-04-17T06:55:20.282Z,3524.00
2023-04-17T06:56:20.263Z,3476.00
2023-04-17T06:57:20.277Z,3556.00
2023-04-17T06:58:20.234Z,3544.00
2023-04-17T06:59:20.232Z,3548.00
2023-04-17T07:00:20.244Z,3672.00
2023-04-17T07:01:20.271Z,3764.00
2023-04-17T07:02:20.276Z,3656.00
2023-04-17T07:03:20.320Z,4172.00
2023-04-17T07:04:20.286Z,4164.00
2023-04-17T07:05:20.189Z,3864.00
2023-04-17T07:06:20.147Z,4384.00
2023-04-17T07:07:20.146Z,4028.00
2023-04-17T07:08:20.136Z,4356.00
2023-04-17T07:09:20.115Z,3972.00
2023-04-17T07:10:20.134Z,4264.00
2023-04-17T07:11:20.101Z,4776.00
2023-04-17T07:12:20.079Z,4680.00
2023-04-17T07:13:20.069Z,4032.00
2023-04-17T07:14:20.055Z,4256.00
2023-04-17T07:15:20.094Z,4708.00
2023-04-17T07:16:20.112Z,4384.00
2023-04-17T07:17:20.063Z,4156.00
2023-04-17T07:18:20.022Z,4588.00
2023-04-17T07:19:19.998Z,4588.00
2023-04-17T07:20:20.025Z,4140.00
2023-04-17T07:21:20.005Z,4372.00
2023-04-17T07:22:19.974Z,4468.00
2023-04-17T07:23:19.955Z,4352.00
2023-04-17T07:24:19.944Z,4084.00
2023-04-17T07:25:20.066Z,3984.00
2023-04-17T07:26:19.932Z,4080.00
2023-04-17T07:27:19.911Z,4072.00
2023-04-17T07:28:19.909Z,3972.00
2023-04-17T07:29:19.886Z,3932.00
2023-04-17T07:30:19.899Z,3880.00
2023-04-17T07:31:20.028Z,3812.00
2023-04-17T07:32:19.862Z,3748.00
2023-04-17T07:33:19.842Z,3696.00
2023-04-17T07:34:19.832Z,3604.00
2023-04-17T07:35:19.841Z,3572.00
2023-04-17T07:36:19.834Z,3508.00
2023-04-17T07:37:19.849Z,3524.00
2023-04-17T07:38:19.798Z,3500.00
2023-04-17T07:39:19.800Z,3460.00
2023-04-17T07:40:19.810Z,3416.00
2023-04-17T07:41:19.765Z,3356.00
2023-04-17T07:42:19.749Z,3316.00
2023-04-17T07:43:19.745Z,3272.00
2023-04-17T07:44:19.733Z,3228.00
2023-04-17T07:45:19.732Z,3204.00
2023-04-17T07:46:19.747Z,3180.00
2023-04-17T07:47:19.790Z,3124.00
2023-04-17T07:48:19.685Z,3092.00
2023-04-17T07:49:19.668Z,3048.00
2023-04-17T07:50:19.682Z,3024.00
2023-04-17T07:51:19.644Z,2996.00
2023-04-17T07:52:19.632Z,2980.00
2023-04-17T07:53:19.631Z,2984.00
2023-04-17T07:54:19.620Z,2936.00
2023-04-17T07:55:19.622Z,2880.00
2023-04-17T07:56:19.595Z,2876.00
2023-04-17T07:57:19.596Z,2868.00
2023-04-17T07:58:19.583Z,2848.00
2023-04-17T07:59:19.566Z,2868.00
2023-04-17T08:00:19.568Z,2860.00
2023-04-17T08:01:19.545Z,2916.00
2023-04-17T08:02:20.706Z,2944.00
2023-04-17T08:03:19.664Z,3020.00
2023-04-17T08:04:19.762Z,3076.00
2023-04-17T08:05:19.565Z,3160.00
2023-04-17T08:06:19.484Z,3216.00
2023-04-17T08:07:19.475Z,3292.00
2023-04-17T08:08:19.466Z,3332.00
2023-04-17T08:09:19.456Z,3464.00
2023-04-17T08:10:19.472Z,3556.00
2023-04-17T08:11:19.437Z,3648.00
2023-04-17T08:12:19.424Z,3688.00
2023-04-17T08:13:19.407Z,3720.00
2023-04-17T08:14:19.413Z,3776.00
2023-04-17T08:15:19.402Z,3820.00
2023-04-17T08:16:19.473Z,3864.00
2023-04-17T08:17:19.418Z,3908.00
2023-04-17T08:18:19.387Z,3888.00
2023-04-17T08:19:19.348Z,3932.00
2023-04-17T08:20:19.415Z,3952.00
2023-04-17T08:21:19.327Z,3924.00
2023-04-17T08:22:19.311Z,3940.00
2023-04-17T08:23:19.329Z,4004.00
2023-04-17T08:24:20.078Z,4004.00
2023-04-17T08:25:19.287Z,4024.00
2023-04-17T08:26:19.272Z,4060.00
2023-04-17T08:27:19.262Z,4036.00
2023-04-17T08:28:19.235Z,4048.00
2023-04-17T08:29:19.255Z,4120.00
2023-04-17T08:30:19.437Z,4060.00
2023-04-17T08:31:19.247Z,4160.00
2023-04-17T08:32:19.213Z,4112.00
2023-04-17T08:33:19.189Z,4136.00
2023-04-17T08:34:19.198Z,4156.00
2023-04-17T08:35:19.210Z,4132.00
2023-04-17T08:36:19.163Z,4108.00
2023-04-17T08:37:19.163Z,4096.00
2023-04-17T08:38:19.145Z,4152.00
2023-04-17T08:39:19.124Z,4148.00
2023-04-17T08:40:19.127Z,4144.00
2023-04-17T08:41:19.100Z,4140.00
2023-04-17T08:42:19.304Z,4148.00
2023-04-17T08:43:19.084Z,4088.00
2023-04-17T08:44:19.088Z,4112.00
2023-04-17T08:45:19.091Z,4120.00
2023-04-17T08:46:19.093Z,4100.00
2023-04-17T08:47:19.120Z,4072.00
2023-04-17T08:48:19.027Z,4148.00
2023-04-17T08:49:19.012Z,4152.00
2023-04-17T08:50:19.024Z,4192.00
2023-04-17T08:51:18.993Z,4120.00
2023-04-17T08:52:18.972Z,4088.00
2023-04-17T08:53:18.975Z,4156.00
2023-04-17T08:54:18.952Z,4120.00
2023-04-17T08:55:18.960Z,4208.00
2023-04-17T08:56:18.952Z,4316.00
2023-04-17T08:57:18.933Z,4308.00
2023-04-17T08:58:18.911Z,4192.00
2023-04-17T08:59:18.903Z,4128.00
2023-04-17T09:00:18.918Z,4092.00
2023-04-17T09:01:18.947Z,4048.00
2023-04-17T09:02:18.995Z,4124.00
2023-04-17T09:03:19.049Z,4188.00
2023-04-17T09:04:19.079Z,4208.00
2023-04-17T09:05:18.855Z,4208.00
2023-04-17T09:06:18.820Z,4200.00
2023-04-17T09:07:18.817Z,4188.00
2023-04-17T09:08:18.802Z,4232.00
2023-04-17T09:09:18.788Z,4216.00
2023-04-17T09:10:18.798Z,4184.00
2023-04-17T09:11:18.772Z,4284.00
2023-04-17T09:12:18.764Z,4276.00
2023-04-17T09:13:18.753Z,4232.00
2023-04-17T09:14:18.738Z,4220.00
2023-04-17T09:15:18.749Z,4288.00
2023-04-17T09:16:18.763Z,4292.00
2023-04-17T09:17:18.740Z,4208.00
2023-04-17T09:18:18.747Z,3668.00
2023-04-17T09:19:18.691Z,4264.00
2023-04-17T09:20:18.696Z,4332.00
2023-04-17T09:21:18.749Z,4480.00
2023-04-17T09:22:18.670Z,4380.00
2023-04-17T09:23:18.640Z,3600.00
2023-04-17T09:24:18.642Z,3764.00
2023-04-17T09:25:18.689Z,4456.00
2023-04-17T09:26:18.605Z,4404.00
2023-04-17T09:27:18.609Z,4540.00
2023-04-17T09:28:18.596Z,4536.00
2023-04-17T09:29:18.601Z,4528.00
2023-04-17T09:30:18.587Z,4520.00
2023-04-17T09:31:18.638Z,4532.00
2023-04-17T09:32:18.537Z,4552.00
2023-04-17T09:33:18.530Z,4556.00
2023-04-17T09:34:18.529Z,4632.00
2023-04-17T09:35:18.538Z,4712.00
2023-04-17T09:36:19.808Z,4656.00
2023-04-17T09:37:18.494Z,4516.00
2023-04-17T09:38:18.482Z,4464.00
2023-04-17T09:39:18.480Z,4744.00
2023-04-17T09:40:18.583Z,4664.00
2023-04-17T09:41:18.449Z,4824.00
2023-04-17T09:42:18.440Z,4696.00
2023-04-17T09:43:18.432Z,4956.00
2023-04-17T09:44:19.140Z,5016.00
2023-04-17T09:45:18.424Z,4840.00
2023-04-17T09:46:18.413Z,4844.00
2023-04-17T09:47:18.453Z,4900.00
2023-04-17T09:48:18.369Z,5060.00
2023-04-17T09:49:18.361Z,5048.00
2023-04-17T09:50:18.408Z,5144.00
2023-04-17T09:51:18.332Z,5416.00
2023-04-17T09:52:18.333Z,5492.00
2023-04-17T09:53:18.317Z,5588.00
2023-04-17T09:54:18.408Z,5764.00
2023-04-17T09:55:18.352Z,6172.00
2023-04-17T09:56:18.280Z,6384.00
2023-04-17T09:57:18.266Z,6416.00
2023-04-17T09:58:18.291Z,6404.00
2023-04-17T09:59:18.238Z,6212.00
2023-04-17T10:00:18.294Z,6032.00
2023-04-17T10:01:18.235Z,6052.00
2023-04-17T10:02:18.371Z,6096.00
2023-04-17T10:03:18.425Z,6152.00
2023-04-17T10:04:18.595Z,6220.00
2023-04-17T10:05:18.190Z,6224.00
2023-04-17T10:06:18.176Z,6236.00
2023-04-17T10:07:18.163Z,6304.00
2023-04-17T10:08:18.146Z,6304.00
2023-04-17T10:09:18.131Z,6028.00
2023-04-17T10:10:18.133Z,5912.00
2023-04-17T10:11:18.104Z,5880.00
2023-04-17T10:12:18.102Z,5864.00
2023-04-17T10:13:18.081Z,6008.00
2023-04-17T10:14:18.089Z,6200.00
2023-04-17T10:15:18.088Z,6496.00
2023-04-17T10:16:18.108Z,6760.00
2023-04-17T10:17:18.040Z,4224.00
2023-04-17T10:18:18.034Z,4288.00
2023-04-17T10:19:18.015Z,6836.00
2023-04-17T10:20:18.121Z,6992.00
2023-04-17T10:21:18.001Z,6724.00
2023-04-17T10:22:17.989Z,6364.00
2023-04-17T10:23:17.970Z,6432.00
2023-04-17T10:24:17.968Z,6548.00
2023-04-17T10:25:17.961Z,6580.00
2023-04-17T10:26:18.201Z,6460.00
2023-04-17T10:27:17.932Z,6236.00
2023-04-17T10:28:17.964Z,5948.00
2023-04-17T10:29:17.942Z,6080.00
2023-04-17T10:30:17.917Z,5844.00
2023-04-17T10:31:17.926Z,4336.00
2023-04-17T10:32:18.036Z,5516.00
2023-04-17T10:33:17.940Z,5528.00
2023-04-17T10:34:17.857Z,4560.00
2023-04-17T10:35:17.867Z,4484.00
2023-04-17T10:36:17.832Z,4824.00
2023-04-17T10:37:17.834Z,5100.00
2023-04-17T10:38:17.826Z,4960.00
2023-04-17T10:39:17.803Z,5208.00
2023-04-17T10:40:17.808Z,6736.00
2023-04-17T10:41:17.783Z,6128.00
2023-04-17T10:42:17.772Z,7188.00
2023-04-17T10:43:17.788Z,7392.00
2023-04-17T10:44:17.757Z,7316.00
2023-04-17T10:45:17.747Z,5708.00
2023-04-17T10:46:17.788Z,7368.00
2023-04-17T10:47:17.725Z,7560.00
2023-04-17T10:48:17.777Z,7592.00
2023-04-17T10:49:17.694Z,7688.00
2023-04-17T10:50:17.705Z,7456.00
2023-04-17T10:51:17.670Z,7236.00
2023-04-17T10:52:17.678Z,7108.00
2023-04-17T10:53:17.659Z,6032.00
2023-04-17T10:54:17.635Z,6568.00
2023-04-17T10:55:17.664Z,6848.00
2023-04-17T10:56:17.630Z,5820.00
2023-04-17T10:57:17.709Z,5628.00
2023-04-17T10:58:17.592Z,6412.00
2023-04-17T10:59:17.581Z,6744.00
2023-04-17T11:00:17.569Z,6828.00
2023-04-17T11:01:17.646Z,6872.00
2023-04-17T11:02:17.577Z,6616.00
2023-04-17T11:03:17.730Z,6072.00
2023-04-17T11:04:17.591Z,5976.00
2023-04-17T11:05:17.507Z,5852.00
2023-04-17T11:06:17.524Z,5944.00
2023-04-17T11:07:17.492Z,6148.00
2023-04-17T11:08:17.485Z,6464.00
2023-04-17T11:09:17.587Z,6604.00
2023-04-17T11:10:17.461Z,6684.00
2023-04-17T11:11:23.532Z,6544.00
2023-04-17T11:12:17.449Z,6400.00
2023-04-17T11:13:17.423Z,6344.00
2023-04-17T11:14:17.424Z,6236.00
2023-04-17T11:15:17.415Z,6912.00
2023-04-17T11:16:17.454Z,7080.00
2023-04-17T11:17:17.483Z,7156.00
2023-04-17T11:18:17.385Z,7380.00
2023-04-17T11:19:17.361Z,7828.00
2023-04-17T11:20:17.425Z,7584.00
2023-04-17T11:21:25.342Z,7172.00
2023-04-17T11:22:17.332Z,7228.00
2023-04-17T11:23:17.377Z,7612.00
2023-04-17T11:24:17.366Z,7720.00
2023-04-17T11:25:17.391Z,7496.00
2023-04-17T11:26:17.397Z,8228.00
2023-04-17T11:27:17.309Z,8036.00
2023-04-17T11:28:17.384Z,7900.00
2023-04-17T11:29:17.272Z,7700.00
2023-04-17T11:30:17.254Z,7344.00
2023-04-17T11:31:19.438Z,7208.00
2023-04-17T11:32:17.237Z,7188.00
2023-04-17T11:33:17.205Z,7124.00
2023-04-17T11:34:17.823Z,7056.00
2023-04-17T11:35:17.211Z,6824.00
2023-04-17T11:36:17.195Z,6720.00
2023-04-17T11:37:17.181Z,7092.00
2023-04-17T11:38:17.167Z,7692.00
2023-04-17T11:39:17.141Z,8068.00
2023-04-17T11:40:17.145Z,8120.00
2023-04-17T11:41:17.195Z,8088.00
2023-04-17T11:42:17.115Z,8052.00
2023-04-17T11:43:17.108Z,7732.00
2023-04-17T11:44:17.096Z,7620.00
2023-04-17T11:45:17.096Z,7724.00
2023-04-17T11:46:17.112Z,7416.00
2023-04-17T11:47:17.078Z,6668.00
2023-04-17T11:48:17.051Z,6304.00
2023-04-17T11:49:17.067Z,3520.00
2023-04-17T11:50:17.037Z,3420.00
2023-04-17T11:51:17.036Z,3748.00
2023-04-17T11:52:18.054Z,6036.00
2023-04-17T11:53:17.016Z,5908.00
2023-04-17T11:54:17.001Z,6092.00
2023-04-17T11:55:16.965Z,5888.00
2023-04-17T11:56:17.003Z,3580.00
2023-04-17T11:57:16.952Z,5912.00
2023-04-17T11:58:16.977Z,5932.00
2023-04-17T11:59:16.950Z,5916.00
2023-04-17T12:00:16.926Z,5980.00
2023-04-17T12:01:16.969Z,6128.00
2023-04-17T12:02:17.104Z,6256.00
2023-04-17T12:03:17.829Z,6272.00
2023-04-17T12:04:17.302Z,6308.00
2023-04-17T12:05:16.923Z,6172.00
2023-04-17T12:06:16.874Z,6044.00
2023-04-17T12:07:16.856Z,5860.00
2023-04-17T12:08:16.837Z,5780.00
2023-04-17T12:09:16.848Z,5776.00
2023-04-17T12:10:16.839Z,5788.00
2023-04-17T12:11:16.877Z,5800.00
2023-04-17T12:12:16.788Z,5804.00
2023-04-17T12:13:16.788Z,5840.00
2023-04-17T12:14:16.769Z,5820.00
2023-04-17T12:15:16.785Z,5792.00
2023-04-17T12:16:16.840Z,5824.00
2023-04-17T12:17:16.739Z,5632.00
2023-04-17T12:18:16.725Z,5884.00
2023-04-17T12:19:16.781Z,5880.00
2023-04-17T12:20:16.704Z,5868.00
2023-04-17T12:21:16.706Z,5844.00
2023-04-17T12:22:16.731Z,5864.00
2023-04-17T12:23:16.676Z,5848.00
2023-04-17T12:24:16.658Z,5864.00
2023-04-17T12:25:16.649Z,5876.00
2023-04-17T12:26:16.660Z,5848.00
2023-04-17T12:27:16.629Z,5868.00
2023-04-17T12:28:16.626Z,5876.00
2023-04-17T12:29:16.597Z,5892.00
2023-04-17T12:30:16.612Z,5856.00
2023-04-17T12:31:16.619Z,5840.00